Time;durP1;ratioP1;P1;durP2;ratioP2;P2;SDS_P1;SDS_P2;PMS_P1;PMS_P2;Temp;Humidity;BMP_temperature;BMP_pressure;BME280_temperature;BME280_humidity;BME280_pressure;Samples;Min_cycle;Max_cycle;Signal;HPM_P1;HPM_P2
2021/08/08 00:00:57;;;;;;;1.27;0.90;;;16.50;99.90;;;15.34;100.00;102516.13;3786685;22;21585;-86
2021/08/08 00:03:24;;;;;;;2.00;1.13;;;16.40;99.90;;;15.35;100.00;102500.81;3766099;22;20648;-87
2021/08/08 00:05:56;;;;;;;1.30;1.20;;;16.40;99.90;;;15.38;100.00;102430.41;3471506;22;20422;-90
2021/08/08 00:09:00;;;;;;;1.10;0.98;;;16.40;99.90;;;15.36;100.00;102386.53;2862055;22;20579;-84
2021/08/08 00:11:36;;;;;;;1.27;0.80;;;16.20;99.90;;;15.36;100.00;102344.22;3740903;22;20275;-88
2021/08/08 00:14:04;;;;;;;0.90;0.82;;;16.30;99.90;;;15.36;100.00;102300.22;3755690;22;20611;-85
2021/08/08 00:16:31;;;;;;;1.23;1.08;;;16.30;99.90;;;15.34;100.00;102257.19;3617170;22;20930;-84
2021/08/08 00:18:58;;;;;;;1.02;0.90;;;16.40;99.90;;;15.30;100.00;102219.88;3747799;22;20292;-86
2021/08/08 00:22:03;;;;;;;0.80;0.80;;;16.40;99.90;;;15.27;100.00;102185.09;2715180;22;21112;-85
2021/08/08 00:24:39;;;;;;;0.80;0.80;;;16.30;99.90;;;15.21;100.00;102145.19;3840202;22;20261;-85
2021/08/08 00:27:16;;;;;;;1.00;0.88;;;16.30;99.90;;;15.18;100.00;102129.31;3768976;22;20378;-87
2021/08/08 00:29:52;;;;;;;1.15;0.80;;;16.30;99.90;;;15.14;100.00;102090.16;2803371;22;20978;-86
2021/08/08 00:32:20;;;;;;;1.38;1.17;;;17.30;99.90;;;15.13;100.00;102034.53;3691599;22;20752;31
2021/08/08 00:34:50;;;;;;;3.58;1.20;;;16.20;99.90;;;15.10;100.00;102121.94;3740229;22;21000;-85
2021/08/08 00:37:19;;;;;;;0.85;0.70;;;16.20;99.90;;;15.08;100.00;102119.38;3732250;23;20307;-85
2021/08/08 00:39:47;;;;;;;1.55;1.00;;;16.00;99.90;;;15.05;100.00;102114.28;3670413;22;20324;-88
2021/08/08 00:42:15;;;;;;;1.75;1.15;;;16.40;99.90;;;15.02;100.00;102092.16;3618317;22;21001;31
2021/08/08 00:44:45;;;;;;;0.88;0.80;;;16.10;99.90;;;15.00;100.00;102095.00;3753287;22;22550;-86
2021/08/08 00:47:13;;;;;;;1.48;1.13;;;16.10;99.90;;;14.96;100.00;102085.47;3762603;22;22067;-88
2021/08/08 00:49:43;;;;;;;1.50;1.20;;;16.10;99.90;;;14.94;100.00;102083.94;3849502;22;22277;-85
2021/08/08 00:52:11;;;;;;;0.50;0.50;;;16.00;99.90;;;14.91;100.00;102082.38;3746633;22;20243;-83
2021/08/08 00:54:44;;;;;;;1.15;0.80;;;16.00;99.90;;;14.88;100.00;102074.56;3742971;22;20342;-87
2021/08/08 00:57:12;;;;;;;0.98;0.85;;;15.80;99.90;;;14.85;100.00;102074.84;3269545;22;22341;-88
2021/08/08 00:59:42;;;;;;;0.95;0.70;;;16.00;99.90;;;14.86;100.00;102081.09;2856535;22;22735;-89
2021/08/08 01:02:12;;;;;;;1.20;0.90;;;16.00;99.90;;;14.81;100.00;102069.91;3321988;22;20798;-85
2021/08/08 01:04:48;;;;;;;1.27;0.98;;;15.90;99.90;;;14.79;100.00;102061.09;3719982;22;20470;-84
2021/08/08 01:07:20;;;;;;;1.13;0.90;;;16.00;99.90;;;14.79;100.00;102063.81;3613558;22;20215;-88
2021/08/08 01:09:55;;;;;;;1.35;0.77;;;15.90;99.90;;;14.78;100.00;102059.41;2439916;22;20244;31
2021/08/08 01:12:24;;;;;;;2.65;1.30;;;15.90;99.90;;;14.78;100.00;102059.41;3122643;22;21022;-87
2021/08/08 01:14:55;;;;;;;2.15;0.95;;;15.80;99.90;;;14.78;100.00;102043.22;3720931;22;22158;-86
2021/08/08 01:17:25;;;;;;;2.72;1.05;;;15.80;99.90;;;14.77;100.00;102028.06;3894336;22;21327;-85
2021/08/08 01:20:03;;;;;;;1.27;1.10;;;15.80;99.90;;;14.72;100.00;102013.16;3781933;22;20252;-86
2021/08/08 01:22:41;;;;;;;1.30;1.20;;;15.80;99.90;;;14.69;100.00;102023.41;2977400;22;20408;-86
2021/08/08 01:25:12;;;;;;;3.05;1.00;;;16.70;99.90;;;14.68;100.00;102024.38;3406014;22;20481;-86
2021/08/08 01:27:40;;;;;;;1.13;1.02;;;15.80;99.90;;;14.67;100.00;101999.28;3510416;22;20263;-86
2021/08/08 01:30:11;;;;;;;0.77;0.77;;;15.80;99.90;;;14.66;100.00;101977.88;3291630;22;20504;-83
2021/08/08 01:32:40;;;;;;;1.65;1.35;;;15.70;99.90;;;14.65;100.00;101963.53;3078671;22;24933;-84
2021/08/08 01:35:11;;;;;;;1.35;1.10;;;15.70;99.90;;;14.66;100.00;101927.53;3712607;22;21065;-85
2021/08/08 01:37:40;;;;;;;2.13;1.10;;;15.70;99.90;;;14.63;100.00;101900.88;2574447;22;24045;-86
2021/08/08 01:40:18;;;;;;;1.30;1.20;;;15.70;99.90;;;14.65;100.00;101841.47;2565212;22;22901;-81
2021/08/08 01:42:49;;;;;;;1.50;1.23;;;15.70;99.90;;;14.63;100.00;101929.66;3846199;22;22973;-86
2021/08/08 01:45:18;;;;;;;1.30;0.90;;;15.80;99.90;;;14.63;100.00;101930.50;3004696;22;22801;-86
2021/08/08 01:48:26;;;;;;;1.02;0.98;;;15.80;99.90;;;14.66;100.00;101878.19;3714408;22;20236;-87
2021/08/08 01:51:03;;;;;;;2.15;1.08;;;16.60;99.90;;;14.69;100.00;101859.03;2436632;22;20250;-84
2021/08/08 01:53:31;;;;;;;0.63;0.60;;;16.20;99.90;;;14.65;100.00;101828.84;3403601;22;22713;-84
2021/08/08 01:56:00;;;;;;;1.02;1.00;;;16.10;99.90;;;14.64;100.00;101808.28;2488639;22;23628;-86
2021/08/08 01:59:06;;;;;;;0.88;0.88;;;15.70;99.90;;;14.63;100.00;101776.94;3799212;22;20244;-87
2021/08/08 02:01:43;;;;;;;3.03;1.10;;;15.60;99.90;;;14.60;100.00;101771.00;3843295;22;22882;-88
2021/08/08 02:04:20;;;;;;;2.47;0.95;;;16.70;99.90;;;14.58;100.00;101760.41;2321158;22;21323;-86
2021/08/08 02:07:29;;;;;;;1.42;1.27;;;16.60;99.90;;;14.60;100.00;101720.66;2196767;22;25984;-87
2021/08/08 02:10:43;;;;;;;5.75;0.90;;;16.80;99.90;;;14.63;100.00;101701.53;2888072;22;23710;-85
2021/08/08 02:13:26;;;;;;;3.00;0.68;;;15.60;99.90;;;14.69;100.00;101681.22;3259380;22;10160687;-83
2021/08/08 02:15:55;;;;;;;0.85;0.70;;;15.60;99.90;;;14.67;100.00;101665.22;3687506;22;20256;-84
2021/08/08 02:18:23;;;;;;;1.13;0.95;;;15.60;99.90;;;14.65;100.00;101636.72;3843684;22;22782;-82
2021/08/08 02:20:53;;;;;;;3.25;0.88;;;15.50;99.90;;;14.63;100.00;101603.69;3746669;22;20293;-86
2021/08/08 02:23:21;;;;;;;2.95;1.10;;;15.60;99.90;;;14.63;100.00;101568.69;3494505;22;20274;-83
2021/08/08 02:26:25;;;;;;;0.90;0.90;;;15.60;99.90;;;14.60;100.00;101533.97;3244657;22;20265;-86
2021/08/08 02:29:41;;;;;;;1.35;1.02;;;15.60;99.90;;;14.61;100.00;101479.94;3551408;22;22331;-87
2021/08/08 02:32:18;;;;;;;2.50;1.08;;;15.60;99.90;;;14.54;100.00;101443.88;3637844;23;20592;-83
2021/08/08 02:34:47;;;;;;;2.13;0.90;;;15.50;99.90;;;14.52;100.00;101412.69;3635483;22;20984;-85
2021/08/08 02:37:17;;;;;;;3.10;0.90;;;15.50;99.90;;;14.46;100.00;101395.34;3799214;22;20247;-85
2021/08/08 02:40:25;;;;;;;1.88;1.33;;;15.90;99.90;;;14.42;100.00;101355.41;3653682;22;20255;-85
2021/08/08 02:43:38;;;;;;;1.23;0.85;;;15.50;99.90;;;14.37;100.00;101328.91;3745543;22;20849;-85
2021/08/08 02:46:52;;;;;;;1.20;1.05;;;15.40;99.90;;;14.35;100.00;101298.59;3626351;22;20501;-83
2021/08/08 02:49:28;;;;;;;1.15;0.90;;;15.40;99.90;;;14.31;100.00;101233.47;3701888;22;20246;-85
2021/08/08 02:51:57;;;;;;;1.90;1.33;;;16.40;99.90;;;14.29;100.00;101178.94;3167246;22;20866;-87
2021/08/08 02:54:25;;;;;;;1.20;1.00;;;15.30;99.90;;;14.31;100.00;101101.56;3682352;23;20662;-83
2021/08/08 02:56:52;;;;;;;0.98;0.80;;;16.00;99.90;;;14.26;100.00;101019.59;2352954;22;20224;-85
2021/08/08 02:59:22;;;;;;;5.18;1.00;;;15.30;99.90;;;14.23;100.00;100960.69;3464331;22;20257;-86
2021/08/08 03:01:52;;;;;;;1.08;0.80;;;15.20;99.90;;;14.26;100.00;100915.47;3653064;22;20451;-84
2021/08/08 03:04:19;;;;;;;1.48;1.00;;;15.30;99.90;;;14.25;100.00;100837.56;3665933;22;21219;-83
2021/08/08 03:06:49;;;;;;;1.10;0.80;;;15.30;99.90;;;14.25;100.00;101454.00;3587942;22;21253;-86
2021/08/08 03:09:20;;;;;;;1.35;1.10;;;15.20;99.90;;;14.26;100.00;101443.06;3619363;22;20288;-87
2021/08/08 03:11:47;;;;;;;2.35;1.08;;;15.30;99.90;;;14.24;100.00;101367.00;3623019;22;20766;-85
2021/08/08 03:14:53;;;;;;;1.10;1.00;;;15.30;99.90;;;14.30;100.00;101300.94;3698266;22;20250;-87
2021/08/08 03:18:07;;;;;;;3.85;1.13;;;15.30;99.90;;;14.38;100.00;101217.50;3649943;22;20581;-81
2021/08/08 03:21:19;;;;;;;1.55;1.33;;;15.30;99.90;;;14.36;100.00;101095.66;3581974;39;20907;-82
2021/08/08 03:23:55;;;;;;;1.27;0.85;;;15.60;99.90;;;14.32;100.00;101010.88;3738403;22;22548;-86
2021/08/08 03:26:58;;;;;;;1.98;0.82;;;15.30;99.90;;;14.29;100.00;100933.13;3628971;22;20244;-85
2021/08/08 03:30:11;;;;;;;1.20;0.90;;;15.30;99.90;;;14.29;100.00;100868.53;3640652;22;20327;-85
2021/08/08 03:33:25;;;;;;;1.85;1.30;;;15.30;99.90;;;14.23;100.00;100824.28;3591994;39;20484;-85
2021/08/08 03:36:38;;;;;;;0.75;0.75;;;15.20;99.90;;;14.21;100.00;100795.88;3592386;39;20276;-86
2021/08/08 03:39:14;;;;;;;0.70;0.70;;;16.10;99.90;;;14.23;100.00;100765.06;3790452;22;20234;-85
2021/08/08 03:42:19;;;;;;;0.60;0.57;;;15.20;99.90;;;14.27;100.00;100746.72;3558416;22;20283;-84
2021/08/08 03:44:57;;;;;;;2.30;0.90;;;15.20;99.90;;;14.22;100.00;100714.09;3744256;22;23018;-84
2021/08/08 03:47:24;;;;;;;0.80;0.80;;;15.10;99.90;;;14.18;100.00;100691.22;3617106;23;20653;-86
2021/08/08 03:49:53;;;;;;;1.20;0.80;;;15.10;99.90;;;14.13;100.00;100672.91;3619711;22;20732;-84
2021/08/08 03:52:20;;;;;;;1.25;1.00;;;15.10;99.90;;;14.10;100.00;100665.16;3725093;22;23971;-84
2021/08/08 03:54:47;;;;;;;0.75;0.75;;;16.20;99.90;;;14.11;100.00;100668.69;3731120;22;20318;-84
2021/08/08 03:57:14;;;;;;;1.35;0.85;;;15.50;99.90;;;14.13;100.00;100680.13;3610290;23;20265;-83
2021/08/08 03:59:41;;;;;;;1.25;0.93;;;15.00;99.90;;;14.05;100.00;100674.78;3610253;22;22184;-87
2021/08/08 04:02:10;;;;;;;4.20;1.05;;;15.00;99.90;;;14.07;100.00;100676.28;3524723;22;20279;-83
2021/08/08 04:04:39;;;;;;;1.77;0.80;;;15.00;99.90;;;14.10;100.00;100672.41;3881203;22;22332;-86
2021/08/08 04:07:08;;;;;;;2.05;1.05;;;15.00;99.90;;;14.14;100.00;100684.50;3260374;22;24168;-82
2021/08/08 04:09:35;;;;;;;1.20;1.00;;;15.10;99.90;;;14.17;100.00;100685.00;3704627;23;20231;-84
2021/08/08 04:12:07;;;;;;;3.43;0.93;;;15.10;99.90;;;14.16;100.00;100680.63;3633350;22;20269;-87
2021/08/08 04:14:37;;;;;;;1.42;1.10;;;15.10;99.90;;;14.18;100.00;100691.22;3722872;23;20252;-86
2021/08/08 04:17:05;;;;;;;1.13;0.80;;;15.30;99.90;;;14.20;100.00;100676.59;3315811;22;21965;-84
2021/08/08 04:19:33;;;;;;;1.30;1.02;;;16.10;99.90;;;14.28;100.00;100668.50;3896476;22;20805;-85
2021/08/08 04:22:01;;;;;;;0.98;0.70;;;15.30;99.90;;;14.36;100.00;100667.63;2836740;22;22961;-84
2021/08/08 04:24:31;;;;;;;1.33;1.20;;;15.20;99.90;;;14.43;100.00;100663.28;3603493;22;20851;-84
2021/08/08 04:26:58;;;;;;;1.08;0.80;;;15.60;99.90;;;14.55;100.00;100648.41;3958601;22;20615;-86
2021/08/08 04:29:25;;;;;;;1.52;1.05;;;16.20;99.90;;;14.47;100.00;100631.44;3509098;22;26201;-84
2021/08/08 04:31:52;;;;;;;2.58;1.42;;;15.50;99.90;;;14.40;100.00;100619.69;3738069;22;20236;-84
2021/08/08 04:34:19;;;;;;;3.13;0.73;;;15.30;99.90;;;14.35;100.00;100601.31;3696005;22;20273;-85
2021/08/08 04:37:14;;;;;;;1.20;0.90;;;15.30;99.90;;;14.49;100.00;100599.78;3793685;22;20373;-87
2021/08/08 04:40:28;;;;;;;1.88;1.13;;;15.40;99.90;;;14.43;100.00;100571.72;3658878;22;20534;-82
2021/08/08 04:43:05;;;;;;;1.35;0.77;;;15.40;99.90;;;14.47;100.00;100582.97;3959973;22;20257;-84
2021/08/08 04:45:35;;;;;;;1.88;1.08;;;15.40;99.90;;;14.56;100.00;100573.84;3973275;22;20285;31
2021/08/08 04:48:02;;;;;;;2.67;1.15;;;15.50;99.90;;;14.61;100.00;100553.44;3800080;22;20775;31
2021/08/08 04:50:32;;;;;;;1.00;0.90;;;16.50;99.90;;;14.58;100.00;100068.28;3667071;22;20227;-84
2021/08/08 04:52:59;;;;;;;2.45;0.50;;;15.60;99.90;;;14.56;100.00;101226.41;3706686;22;20265;31
2021/08/08 04:55:28;;;;;;;2.65;0.77;;;15.60;99.90;;;14.59;100.00;101219.81;3731937;22;23022;-85
2021/08/08 04:58:31;;;;;;;1.25;0.80;;;15.60;99.90;;;14.66;100.00;101111.28;3243082;22;20310;-85
2021/08/08 05:01:07;;;;;;;0.60;0.60;;;15.60;99.90;;;14.68;100.00;100998.00;3713388;22;20241;-88
2021/08/08 05:03:35;;;;;;;4.22;1.00;;;16.80;99.90;;;14.66;100.00;100919.22;3733391;22;20276;-86
2021/08/08 05:06:02;;;;;;;1.77;1.15;;;15.70;99.90;;;14.60;100.00;100833.69;3831350;22;21613;31
2021/08/08 05:08:29;;;;;;;7.18;0.93;;;14.80;99.90;;;14.63;100.00;100777.63;3543179;22;20540;-86
2021/08/08 05:10:58;;;;;;;0.93;0.85;;;15.80;99.90;;;14.60;100.00;100734.88;2338273;22;21440;-86
2021/08/08 05:13:28;;;;;;;1.08;0.90;;;16.80;99.90;;;14.61;100.00;100687.25;1922042;22;22487;-88
2021/08/08 05:15:56;;;;;;;2.65;0.98;;;15.70;99.90;;;14.64;100.00;100655.44;3902612;22;22363;-84
2021/08/08 05:18:24;;;;;;;1.38;0.82;;;15.70;99.90;;;14.73;100.00;100624.72;2172618;22;25431;-84
2021/08/08 05:21:28;;;;;;;1.23;1.00;;;15.70;99.90;;;14.76;100.00;100596.63;3858675;22;20377;-87
2021/08/08 05:24:04;;;;;;;0.85;0.85;;;15.70;99.90;;;14.80;100.00;100575.56;2085120;22;22485;-87
2021/08/08 05:26:33;;;;;;;3.63;1.13;;;15.70;99.90;;;14.94;100.00;100566.72;2425555;22;24846;-85
2021/08/08 05:29:00;;;;;;;0.95;0.90;;;15.70;99.90;;;14.99;100.00;100534.66;2887984;22;20842;31
2021/08/08 05:32:07;;;;;;;1.27;1.02;;;15.70;99.90;;;14.96;100.00;100511.59;1978252;22;22669;-86
2021/08/08 05:34:43;;;;;;;0.98;0.98;;;15.80;99.90;;;15.24;100.00;100498.38;1914094;22;21861;31
2021/08/08 05:37:10;;;;;;;1.30;0.98;;;15.80;99.90;;;15.35;100.00;100470.97;2956078;22;20310;-84
2021/08/08 05:39:37;;;;;;;1.20;1.10;;;15.90;99.90;;;15.82;100.00;100458.19;3992951;22;22954;-83
2021/08/08 05:42:09;;;;;;;1.13;0.88;;;16.00;99.90;;;16.06;100.00;100433.56;3956579;22;21384;-86
2021/08/08 05:45:13;;;;;;;1.27;1.17;;;16.20;99.90;;;16.30;100.00;100399.97;2276870;22;24702;-82
2021/08/08 05:47:50;;;;;;;4.32;1.08;;;16.40;99.90;;;16.51;100.00;100335.16;3790975;22;20302;31
2021/08/08 05:50:19;;;;;;;0.50;0.50;;;16.60;99.90;;;16.61;100.00;100280.78;2652403;22;21662;-83
2021/08/08 05:52:50;;;;;;;1.00;0.70;;;16.80;99.90;;;16.86;100.00;100226.09;3690697;22;20260;-86
2021/08/08 05:55:18;;;;;;;1.15;0.68;;;17.30;99.90;;;16.59;100.00;100154.00;3570125;39;21015;-86
2021/08/08 05:57:47;;;;;;;0.70;0.70;;;17.20;99.90;;;16.83;100.00;100098.66;3606872;23;20250;-83
2021/08/08 06:00:15;;;;;;;0.55;0.55;;;17.50;99.90;;;16.88;100.00;100055.66;3661494;22;20573;-82
2021/08/08 06:02:51;;;;;;;0.40;0.35;;;17.60;99.90;;;16.74;100.00;99994.50;3639404;22;20598;-87
2021/08/08 06:05:22;;;;;;;6.60;1.00;;;17.60;99.90;;;17.20;100.00;99956.69;3625003;22;20856;-83
2021/08/08 06:08:28;;;;;;;0.68;0.40;;;17.90;99.90;;;17.32;100.00;99900.09;2913337;22;20375;-86
2021/08/08 06:11:06;;;;;;;0.70;0.40;;;18.10;99.90;;;17.41;100.00;99856.41;3466113;22;20296;-84
2021/08/08 06:13:35;;;;;;;0.90;0.73;;;18.30;99.90;;;17.48;100.00;99799.56;3679766;22;20659;-87
2021/08/08 06:16:02;;;;;;;0.85;0.50;;;18.40;99.90;;;17.54;100.00;99758.97;3521084;22;21212;-85
2021/08/08 06:18:30;;;;;;;1.08;0.47;;;18.00;99.90;;;17.48;100.00;99716.56;3585269;39;20252;-84
2021/08/08 06:21:33;;;;;;;1.65;0.43;;;18.70;99.90;;;17.63;100.00;99672.16;3620364;22;20242;-86
2021/08/08 06:24:45;;;;;;;1.13;0.40;;;18.70;99.90;;;18.08;100.00;99635.78;3611530;23;20365;-83
2021/08/08 06:27:21;;;;;;;0.90;0.80;;;19.00;99.90;;;17.96;100.00;99572.59;3657415;22;20316;-83
2021/08/08 06:29:50;;;;;;;0.82;0.35;;;19.10;99.90;;;18.24;100.00;99520.66;3571834;39;20385;-84
2021/08/08 06:32:17;;;;;;;0.52;0.43;;;19.30;99.90;;;18.28;100.00;99475.84;3642499;22;21086;-86
2021/08/08 06:34:44;;;;;;;0.50;0.40;;;19.40;99.90;;;18.11;100.00;99435.00;3571712;39;20564;-82
2021/08/08 06:37:11;;;;;;;0.60;0.60;;;19.60;99.90;;;18.19;100.00;99404.91;3549803;40;20667;-83
2021/08/08 06:39:39;;;;;;;0.63;0.63;;;19.70;99.90;;;18.54;100.00;99383.38;3553659;40;20568;-87
2021/08/08 06:42:42;;;;;;;0.82;0.50;;;20.70;99.90;;;18.59;100.00;99340.19;3607364;23;20229;-85
2021/08/08 06:45:56;;;;;;;1.05;0.57;;;20.00;99.90;;;18.53;100.00;99324.84;3574834;39;20263;-81
2021/08/08 06:49:08;;;;;;;0.55;0.55;;;20.10;99.90;;;18.35;100.00;99300.53;3613240;22;20960;-83
2021/08/08 06:52:20;;;;;;;0.52;0.40;;;20.20;99.90;;;18.60;100.00;99292.25;3611740;22;20486;-85
2021/08/08 06:55:34;;;;;;;0.47;0.40;;;20.20;99.90;;;18.88;100.00;99256.31;3565286;40;20348;-81
2021/08/08 06:58:10;;;;;;;0.47;0.47;;;20.40;99.90;;;18.78;100.00;99231.69;3648405;22;20591;-81
2021/08/08 07:00:39;;;;;;;0.45;0.30;;;20.60;99.90;;;19.05;100.00;99210.31;3568427;39;21049;-82
2021/08/08 07:03:07;;;;;;;1.70;0.68;;;20.70;99.90;;;19.18;100.00;99194.59;3575830;39;20270;-86
2021/08/08 07:05:34;;;;;;;1.10;0.63;;;21.30;99.90;;;19.05;100.00;99159.63;3653433;22;20248;-80
2021/08/08 07:08:01;;;;;;;2.75;0.50;;;20.90;99.90;;;18.95;100.00;99132.31;3587051;39;20745;-85
2021/08/08 07:10:28;;;;;;;0.28;0.28;;;21.00;99.90;;;19.20;100.00;99115.72;3590289;39;20757;-83
2021/08/08 07:12:55;;;;;;;0.30;0.30;;;21.10;99.90;;;18.91;100.00;99087.81;3637635;22;20781;-87
2021/08/08 07:15:22;;;;;;;0.57;0.57;;;21.20;99.90;;;19.12;100.00;99078.16;3578061;39;20477;-84
2021/08/08 07:17:51;;;;;;;0.35;0.30;;;21.30;99.90;;;19.54;100.00;99074.06;3566474;40;20262;-83
2021/08/08 07:20:18;;;;;;;2.33;0.55;;;21.30;99.90;;;19.24;100.00;99043.69;3565145;40;20261;-85
2021/08/08 07:22:45;;;;;;;2.55;0.40;;;21.40;99.90;;;19.15;100.00;99035.13;3564435;40;20286;-81
2021/08/08 07:25:12;;;;;;;0.82;0.47;;;21.60;99.90;;;19.35;100.00;99018.38;3573108;39;20293;-87
2021/08/08 07:27:40;;;;;;;0.85;0.60;;;21.20;99.90;;;19.68;100.00;98995.84;3627240;22;20546;-83
2021/08/08 07:30:08;;;;;;;0.38;0.38;;;21.60;99.90;;;20.00;100.00;98942.59;3641217;22;20852;-85
2021/08/08 07:32:37;;;;;;;0.50;0.40;;;21.80;99.90;;;20.12;100.00;98881.91;3587994;39;20601;-87
2021/08/08 07:35:07;;;;;;;0.45;0.40;;;21.10;99.90;;;20.14;100.00;98738.56;3609692;22;20234;-80
2021/08/08 07:37:35;;;;;;;3.63;0.50;;;22.20;99.90;;;19.93;100.00;98593.66;3587743;39;20511;-84
2021/08/08 07:40:02;;;;;;;0.80;0.40;;;23.10;99.90;;;19.97;100.00;99339.47;3630478;22;20269;-81
2021/08/08 07:42:30;;;;;;;0.50;0.30;;;22.40;99.90;;;19.82;100.00;99352.75;3581616;39;20690;-85
2021/08/08 07:44:57;;;;;;;0.20;0.20;;;21.70;99.90;;;19.65;100.00;99366.25;3580671;39;21040;-85
2021/08/08 07:47:24;;;;;;;2.55;0.38;;;22.20;99.50;;;19.66;100.00;99376.03;3664966;22;20718;-81
2021/08/08 07:49:52;;;;;;;0.35;0.30;;;22.50;99.00;;;19.59;100.00;99378.06;3586164;39;20249;-87
2021/08/08 07:52:58;;;;;;;0.82;0.63;;;22.40;98.80;;;19.52;100.00;99368.41;3591797;23;20278;-84
2021/08/08 07:56:10;;;;;;;6.32;0.77;;;22.30;98.40;;;19.58;100.00;99372.88;3669179;22;20401;-85
2021/08/08 07:59:22;;;;;;;0.50;0.50;;;22.30;98.10;;;19.80;100.00;99382.03;3573448;39;20280;-84
2021/08/08 08:02:34;;;;;;;0.30;0.30;;;22.20;99.10;;;20.19;100.00;99382.25;3609038;22;20549;-85
2021/08/08 08:05:46;;;;;;;0.65;0.28;;;22.60;99.30;;;20.21;100.00;99399.97;3594565;39;20379;-82
2021/08/08 08:09:00;;;;;;;0.82;0.30;;;22.40;99.00;;;19.88;100.00;99419.66;3664206;22;20248;-84
2021/08/08 08:11:36;;;;;;;0.30;0.20;;;22.90;96.30;;;19.90;100.00;99424.88;3684336;22;20257;-89
2021/08/08 08:14:03;;;;;;;1.75;0.57;;;22.50;95.20;;;19.73;100.00;99428.31;3593381;22;20249;-81
2021/08/08 08:16:30;;;;;;;0.32;0.30;;;22.40;94.50;;;19.71;100.00;99443.19;3585765;39;20675;-83
2021/08/08 08:18:57;;;;;;;0.43;0.40;;;22.40;94.60;;;19.78;100.00;99432.22;3610050;22;20458;-83
2021/08/08 08:21:25;;;;;;;0.17;0.17;;;22.30;94.80;;;20.37;100.00;99439.97;3614495;23;20271;-87
2021/08/08 08:23:53;;;;;;;0.30;0.30;;;22.60;95.40;;;20.94;100.00;99436.38;3595415;39;20264;-82
2021/08/08 08:26:20;;;;;;;0.65;0.43;;;22.40;96.00;;;21.21;100.00;99425.69;3581788;39;20639;-85
2021/08/08 08:28:48;;;;;;;0.30;0.30;;;22.60;95.10;;;20.94;100.00;99450.78;3620539;22;21122;-86
2021/08/08 08:31:15;;;;;;;0.40;0.40;;;23.70;93.10;;;20.90;100.00;99462.41;3626016;23;20266;-83
2021/08/08 08:33:42;;;;;;;0.40;0.40;;;23.00;91.90;;;20.72;100.00;99479.75;3624911;22;23497;-84
2021/08/08 08:36:09;;;;;;;4.18;0.45;;;23.20;91.20;;;20.44;100.00;99489.56;3702018;22;21108;-86
2021/08/08 08:38:37;;;;;;;0.10;0.10;;;24.00;91.50;;;21.02;100.00;99479.47;3594226;39;20259;-84
2021/08/08 08:41:08;;;;;;;0.52;0.30;;;23.20;92.00;;;20.56;100.00;99491.41;3579173;39;20700;-85
2021/08/08 08:43:35;;;;;;;0.13;0.10;;;23.40;91.00;;;20.30;100.00;99509.06;3678567;22;22402;-85
2021/08/08 08:46:41;;;;;;;0.13;0.13;;;23.30;90.50;;;20.55;100.00;99514.22;3414203;22;20522;-84
2021/08/08 08:49:57;;;;;;;1.17;0.40;;;23.40;88.30;;;20.46;100.00;99519.22;3683462;22;20242;-86
2021/08/08 08:53:12;;;;;;;0.25;0.22;;;24.10;88.70;;;20.85;100.00;99530.31;3558595;40;20254;-82
2021/08/08 08:56:26;;;;;;;0.25;0.25;;;23.40;85.80;;;20.84;100.00;99532.19;3636023;22;20360;-83
2021/08/08 08:59:40;;;;;;;0.43;0.40;;;23.70;82.50;;;21.14;100.00;99530.00;3591687;39;20498;-82
2021/08/08 09:02:52;;;;;;;1.95;0.30;;;23.50;82.20;;;21.24;100.00;99662.75;3605590;39;20252;-89
2021/08/08 09:06:05;;;;;;;0.60;0.35;;;23.90;81.80;;;21.08;100.00;99713.25;3614051;39;20274;-85
2021/08/08 09:09:18;;;;;;;0.77;0.70;;;23.60;81.00;;;21.18;100.00;99731.69;3606864;39;20670;-84
2021/08/08 09:12:46;;;;;;;0.43;0.30;;;23.60;76.90;;;21.43;100.00;99734.94;3685300;22;20257;-84
2021/08/08 09:16:00;;;;;;;0.30;0.30;;;23.60;77.30;;;21.63;100.00;99741.88;3573920;39;21108;-87
2021/08/08 09:18:47;;;;;;;0.65;0.35;;;23.80;77.80;;;21.47;100.00;99735.28;3660008;22;20785;-83
2021/08/08 09:21:15;;;;;;;0.90;0.40;;;24.00;76.70;;;21.04;100.00;99744.72;3578229;39;20615;-83
2021/08/08 09:24:31;;;;;;;0.20;0.20;;;23.80;74.70;;;21.28;100.00;99761.00;3648632;22;20587;-84
2021/08/08 09:27:13;;;;;;;0.30;0.30;;;24.10;75.30;;;21.08;100.00;99754.06;3654753;22;20295;-81
2021/08/08 09:29:45;;;;;;;0.20;0.20;;;24.10;75.00;;;21.26;100.00;99760.47;3562325;39;99249;-85
2021/08/08 09:32:14;;;;;;;1.95;0.43;;;24.00;75.20;;;21.67;100.00;99764.78;3527665;39;94175;-83
2021/08/08 09:34:45;;;;;;;1.17;0.60;;;24.30;77.20;;;21.79;100.00;99774.56;3548116;39;97505;-87
2021/08/08 09:37:50;;;;;;;0.20;0.20;;;24.10;76.10;;;21.54;100.00;99763.19;3612702;22;97487;-86
2021/08/08 09:41:13;;;;;;;0.22;0.22;;;24.30;72.80;;;21.91;100.00;99781.84;3626816;22;96008;-84
2021/08/08 09:44:42;;;;;;;1.02;0.30;;;24.80;73.50;;;22.11;100.00;99779.56;3609808;22;20242;-81
2021/08/08 09:50:05;;;;;;;0.30;0.30;;;24.40;73.90;;;22.21;100.00;99768.81;3597175;39;99871;-86
2021/08/08 09:52:33;;;;;;;0.40;0.40;;;24.80;70.30;;;21.96;100.00;99769.16;3565310;39;99561;-84
2021/08/08 09:55:00;;;;;;;0.20;0.20;;;24.90;67.20;;;22.25;100.00;99778.16;3573126;39;100821;-85
2021/08/08 09:57:39;;;;;;;0.17;0.17;;;25.00;68.00;;;21.77;100.00;99784.88;3567740;39;99541;-86
2021/08/08 10:00:08;;;;;;;0.68;0.38;;;25.10;67.10;;;21.21;100.00;99766.59;3698740;22;102684;-88
2021/08/08 10:02:41;;;;;;;0.28;0.28;;;24.80;66.20;;;21.58;100.00;99779.88;3550607;39;100148;-87
2021/08/08 10:05:11;;;;;;;0.40;0.40;;;24.70;67.40;;;21.89;100.00;99782.09;3655049;22;104548;-84
2021/08/08 10:07:38;;;;;;;2.25;0.32;;;25.20;67.40;;;22.10;100.00;99786.06;3556313;39;100698;-83
2021/08/08 10:10:06;;;;;;;0.25;0.20;;;24.60;67.90;;;22.27;100.00;99795.06;3554237;39;100481;-85
2021/08/08 10:12:57;;;;;;;0.47;0.35;;;24.70;67.60;;;22.29;100.00;99798.38;3585810;39;99066;-84
2021/08/08 10:16:04;;;;;;;0.30;0.30;;;25.60;65.50;;;22.28;100.00;99804.91;3567362;22;20246;-87
2021/08/08 10:19:21;;;;;;;0.25;0.15;;;25.00;63.50;;;21.88;100.00;99804.97;3686075;22;20245;-85
2021/08/08 10:22:35;;;;;;;0.10;0.10;;;25.30;62.10;;;22.01;100.00;99801.97;3583700;39;20242;-82
2021/08/08 10:25:12;;;;;;;0.30;0.20;;;25.20;63.50;;;22.09;100.00;99809.75;3687156;22;20770;-87
2021/08/08 10:27:40;;;;;;;0.20;0.20;;;25.00;64.10;;;21.92;100.00;99810.75;3621279;39;20731;-82
2021/08/08 10:30:08;;;;;;;1.10;0.30;;;25.90;64.40;;;22.41;100.00;99818.22;3662589;22;20292;-85
2021/08/08 10:32:35;;;;;;;0.30;0.30;;;25.10;64.00;;;22.89;100.00;99816.81;3592190;39;20557;-82
2021/08/08 10:35:12;;;;;;;0.65;0.30;;;25.30;64.40;;;23.17;100.00;99821.34;3593276;39;20254;-85
2021/08/08 10:37:42;;;;;;;2.20;0.32;;;25.60;63.90;;;22.60;100.00;99824.28;3606101;39;20247;-83
2021/08/08 10:40:12;;;;;;;0.00;0.00;;;26.20;60.40;;;22.70;100.00;99824.44;3608882;39;20259;-85
2021/08/08 10:42:43;;;;;;;0.20;0.20;;;26.00;58.60;;;22.67;100.00;99835.00;3589382;39;20562;-84
2021/08/08 10:45:23;;;;;;;0.40;0.20;;;26.00;58.40;;;22.63;100.00;99833.84;3591630;39;20280;-86
2021/08/08 10:47:57;;;;;;;0.85;0.22;;;26.10;57.50;;;22.81;100.00;99833.63;3594757;39;20556;-81
2021/08/08 10:50:37;;;;;;;0.32;0.30;;;26.20;57.60;;;22.30;100.00;99840.09;3612907;22;20757;-84
2021/08/08 10:53:07;;;;;;;0.28;0.20;;;26.30;56.50;;;22.70;100.00;99848.16;3622461;22;20750;-88
2021/08/08 10:55:37;;;;;;;0.25;0.25;;;26.10;57.20;;;23.20;100.00;99835.31;3629129;22;20315;-83
2021/08/08 10:58:15;;;;;;;0.20;0.20;;;26.40;57.90;;;22.66;100.00;99852.44;3616415;39;21178;-85
2021/08/08 11:01:24;;;;;;;1.05;0.45;;;26.50;55.70;;;22.76;100.00;99849.91;3766539;22;20249;-85